sensor_id;sensor_type;location;lat;lon;timestamp;temperature;humidity
34873;DHT22;21084;51.098;14.506;2023-01-09T00:02:01;4.20;99.90
34873;DHT22;21084;51.098;14.506;2023-01-09T00:04:30;4.20;99.90
34873;DHT22;21084;51.098;14.506;2023-01-09T00:06:59;4.30;99.90
34873;DHT22;21084;51.098;14.506;2023-01-09T00:09:28;4.30;99.90
34873;DHT22;21084;51.098;14.506;2023-01-09T00:11:58;4.40;99.90
34873;DHT22;21084;51.098;14.506;2023-01-09T00:14:26;4.30;99.90
34873;DHT22;21084;51.098;14.506;2023-01-09T00:16:55;4.40;99.90
34873;DHT22;21084;51.098;14.506;2023-01-09T00:19:24;4.40;99.90
34873;DHT22;21084;51.098;14.506;2023-01-09T00:21:52;4.30;99.90
34873;DHT22;21084;51.098;14.506;2023-01-09T00:24:21;4.30;99.90
34873;DHT22;21084;51.098;14.506;2023-01-09T00:26:50;4.30;99.90
34873;DHT22;21084;51.098;14.506;2023-01-09T00:29:20;4.20;99.90
34873;DHT22;21084;51.098;14.506;2023-01-09T00:31:48;4.10;99.90
34873;DHT22;21084;51.098;14.506;2023-01-09T00:34:17;4.20;99.90
34873;DHT22;21084;51.098;14.506;2023-01-09T00:36:45;4.10;99.90
34873;DHT22;21084;51.098;14.506;2023-01-09T00:39:14;4.10;99.90
34873;DHT22;21084;51.098;14.506;2023-01-09T00:41:46;4.10;99.90
34873;DHT22;21084;51.098;14.506;2023-01-09T00:44:18;4.00;99.90
34873;DHT22;21084;51.098;14.506;2023-01-09T00:46:52;4.00;99.90
34873;DHT22;21084;51.098;14.506;2023-01-09T00:49:21;4.00;99.90
34873;DHT22;21084;51.098;14.506;2023-01-09T00:51:51;4.00;99.90
34873;DHT22;21084;51.098;14.506;2023-01-09T00:54:22;4.00;99.90
34873;DHT22;21084;51.098;14.506;2023-01-09T00:56:51;3.90;99.90
34873;DHT22;21084;51.098;14.506;2023-01-09T00:59:19;3.90;99.90
34873;DHT22;21084;51.098;14.506;2023-01-09T01:01:49;3.90;99.90
34873;DHT22;21084;51.098;14.506;2023-01-09T01:04:18;3.90;99.90
34873;DHT22;21084;51.098;14.506;2023-01-09T01:07:04;4.00;99.90
34873;DHT22;21084;51.098;14.506;2023-01-09T01:09:50;4.20;99.90
34873;DHT22;21084;51.098;14.506;2023-01-09T01:12:18;4.20;99.90
34873;DHT22;21084;51.098;14.506;2023-01-09T01:14:47;4.10;99.90
34873;DHT22;21084;51.098;14.506;2023-01-09T01:17:17;4.10;99.90
34873;DHT22;21084;51.098;14.506;2023-01-09T01:19:46;4.00;99.90
34873;DHT22;21084;51.098;14.506;2023-01-09T01:22:15;4.00;99.90
34873;DHT22;21084;51.098;14.506;2023-01-09T01:24:43;4.00;99.90
34873;DHT22;21084;51.098;14.506;2023-01-09T01:27:12;4.00;99.90
34873;DHT22;21084;51.098;14.506;2023-01-09T01:29:41;4.10;99.90
34873;DHT22;21084;51.098;14.506;2023-01-09T01:32:09;4.00;99.90
34873;DHT22;21084;51.098;14.506;2023-01-09T01:34:40;4.10;99.90
34873;DHT22;21084;51.098;14.506;2023-01-09T01:37:09;4.10;99.90
34873;DHT22;21084;51.098;14.506;2023-01-09T01:39:37;4.10;99.90
34873;DHT22;21084;51.098;14.506;2023-01-09T01:42:06;4.10;99.90
34873;DHT22;21084;51.098;14.506;2023-01-09T01:45:05;4.10;99.90
34873;DHT22;21084;51.098;14.506;2023-01-09T01:47:39;4.10;99.90
34873;DHT22;21084;51.098;14.506;2023-01-09T01:50:14;4.10;99.90
34873;DHT22;21084;51.098;14.506;2023-01-09T01:52:45;4.10;99.90
34873;DHT22;21084;51.098;14.506;2023-01-09T01:55:16;4.10;99.90
34873;DHT22;21084;51.098;14.506;2023-01-09T01:57:48;4.10;99.90
34873;DHT22;21084;51.098;14.506;2023-01-09T02:00:20;4.10;99.90
34873;DHT22;21084;51.098;14.506;2023-01-09T02:02:49;4.10;99.90
34873;DHT22;21084;51.098;14.506;2023-01-09T02:05:20;4.10;99.90
34873;DHT22;21084;51.098;14.506;2023-01-09T02:07:49;4.10;99.90
34873;DHT22;21084;51.098;14.506;2023-01-09T02:10:18;4.10;99.90
34873;DHT22;21084;51.098;14.506;2023-01-09T02:12:49;4.20;99.90
34873;DHT22;21084;51.098;14.506;2023-01-09T02:15:18;4.40;99.90
34873;DHT22;21084;51.098;14.506;2023-01-09T02:20:46;4.50;99.90
34873;DHT22;21084;51.098;14.506;2023-01-09T02:23:47;4.60;99.90
34873;DHT22;21084;51.098;14.506;2023-01-09T02:26:33;4.60;99.90
34873;DHT22;21084;51.098;14.506;2023-01-09T02:29:29;4.60;99.90
34873;DHT22;21084;51.098;14.506;2023-01-09T02:32:12;4.50;99.90
34873;DHT22;21084;51.098;14.506;2023-01-09T02:34:50;4.40;99.90
34873;DHT22;21084;51.098;14.506;2023-01-09T02:37:31;4.50;99.90
34873;DHT22;21084;51.098;14.506;2023-01-09T02:40:04;4.40;99.90
34873;DHT22;21084;51.098;14.506;2023-01-09T02:42:37;4.40;99.90
34873;DHT22;21084;51.098;14.506;2023-01-09T02:45:08;4.40;99.90
34873;DHT22;21084;51.098;14.506;2023-01-09T02:47:41;4.50;99.90
34873;DHT22;21084;51.098;14.506;2023-01-09T02:50:14;4.60;99.90
34873;DHT22;21084;51.098;14.506;2023-01-09T02:53:02;4.60;99.90
34873;DHT22;21084;51.098;14.506;2023-01-09T02:55:49;4.60;99.90
34873;DHT22;21084;51.098;14.506;2023-01-09T02:58:32;4.70;99.90
34873;DHT22;21084;51.098;14.506;2023-01-09T03:01:13;4.70;99.90
34873;DHT22;21084;51.098;14.506;2023-01-09T03:03:49;4.70;99.90
34873;DHT22;21084;51.098;14.506;2023-01-09T03:06:24;4.70;99.90
34873;DHT22;21084;51.098;14.506;2023-01-09T03:09:00;4.80;99.90
34873;DHT22;21084;51.098;14.506;2023-01-09T03:11:34;4.80;99.90
34873;DHT22;21084;51.098;14.506;2023-01-09T03:14:08;4.80;99.90
34873;DHT22;21084;51.098;14.506;2023-01-09T03:16:38;4.90;99.90
34873;DHT22;21084;51.098;14.506;2023-01-09T03:19:11;4.90;99.90
34873;DHT22;21084;51.098;14.506;2023-01-09T03:21:42;4.90;99.90
34873;DHT22;21084;51.098;14.506;2023-01-09T03:24:10;4.90;99.90
34873;DHT22;21084;51.098;14.506;2023-01-09T03:26:39;4.90;99.90
34873;DHT22;21084;51.098;14.506;2023-01-09T03:29:08;5.00;99.90
34873;DHT22;21084;51.098;14.506;2023-01-09T03:31:37;4.90;99.90
34873;DHT22;21084;51.098;14.506;2023-01-09T03:34:05;5.00;99.90
34873;DHT22;21084;51.098;14.506;2023-01-09T03:36:36;5.00;99.90
34873;DHT22;21084;51.098;14.506;2023-01-09T03:39:04;5.00;99.90
34873;DHT22;21084;51.098;14.506;2023-01-09T03:41:33;5.00;99.90
34873;DHT22;21084;51.098;14.506;2023-01-09T03:44:01;5.00;99.90
34873;DHT22;21084;51.098;14.506;2023-01-09T03:46:30;5.10;99.90
34873;DHT22;21084;51.098;14.506;2023-01-09T03:48:59;5.00;99.90
34873;DHT22;21084;51.098;14.506;2023-01-09T03:51:28;5.00;99.90
34873;DHT22;21084;51.098;14.506;2023-01-09T03:53:58;5.00;99.90
34873;DHT22;21084;51.098;14.506;2023-01-09T03:56:26;5.00;99.90
34873;DHT22;21084;51.098;14.506;2023-01-09T03:58:55;5.10;99.90
34873;DHT22;21084;51.098;14.506;2023-01-09T04:01:23;5.10;99.90
34873;DHT22;21084;51.098;14.506;2023-01-09T04:03:52;5.10;99.90
34873;DHT22;21084;51.098;14.506;2023-01-09T04:06:21;5.10;99.90
34873;DHT22;21084;51.098;14.506;2023-01-09T04:08:50;5.10;99.90
34873;DHT22;21084;51.098;14.506;2023-01-09T04:11:20;5.10;99.90
34873;DHT22;21084;51.098;14.506;2023-01-09T04:13:48;5.10;99.90
34873;DHT22;21084;51.098;14.506;2023-01-09T04:16:17;5.10;99.90
34873;DHT22;21084;51.098;14.506;2023-01-09T04:18:45;5.10;99.90
34873;DHT22;21084;51.098;14.506;2023-01-09T04:21:14;5.10;99.90
34873;DHT22;21084;51.098;14.506;2023-01-09T04:23:43;5.10;99.90
34873;DHT22;21084;51.098;14.506;2023-01-09T04:26:12;5.20;99.90
34873;DHT22;21084;51.098;14.506;2023-01-09T04:28:42;5.10;99.90
34873;DHT22;21084;51.098;14.506;2023-01-09T04:31:10;5.10;99.90
34873;DHT22;21084;51.098;14.506;2023-01-09T04:33:39;5.20;99.90
34873;DHT22;21084;51.098;14.506;2023-01-09T04:36:08;5.20;99.90
34873;DHT22;21084;51.098;14.506;2023-01-09T04:38:37;5.20;99.90
34873;DHT22;21084;51.098;14.506;2023-01-09T04:41:06;5.20;99.90
34873;DHT22;21084;51.098;14.506;2023-01-09T04:43:34;5.20;99.90
34873;DHT22;21084;51.098;14.506;2023-01-09T04:46:05;5.20;99.90
34873;DHT22;21084;51.098;14.506;2023-01-09T04:48:33;5.20;99.90
34873;DHT22;21084;51.098;14.506;2023-01-09T04:51:02;5.10;99.90
34873;DHT22;21084;51.098;14.506;2023-01-09T04:53:31;5.20;99.90
34873;DHT22;21084;51.098;14.506;2023-01-09T04:56:00;5.10;99.90
34873;DHT22;21084;51.098;14.506;2023-01-09T04:58:28;5.20;99.90
34873;DHT22;21084;51.098;14.506;2023-01-09T05:00:57;5.30;99.90
34873;DHT22;21084;51.098;14.506;2023-01-09T05:03:28;5.30;99.90
34873;DHT22;21084;51.098;14.506;2023-01-09T05:05:56;5.30;99.90
34873;DHT22;21084;51.098;14.506;2023-01-09T05:08:25;5.20;99.90
34873;DHT22;21084;51.098;14.506;2023-01-09T05:10:54;5.20;99.90
34873;DHT22;21084;51.098;14.506;2023-01-09T05:13:22;5.20;99.90
34873;DHT22;21084;51.098;14.506;2023-01-09T05:15:51;5.20;99.90
34873;DHT22;21084;51.098;14.506;2023-01-09T05:18:19;5.20;99.90
34873;DHT22;21084;51.098;14.506;2023-01-09T05:20:49;5.20;99.90
34873;DHT22;21084;51.098;14.506;2023-01-09T05:23:18;5.20;99.90
34873;DHT22;21084;51.098;14.506;2023-01-09T05:25:46;5.20;99.90
34873;DHT22;21084;51.098;14.506;2023-01-09T05:28:15;5.10;99.90
34873;DHT22;21084;51.098;14.506;2023-01-09T05:30:44;5.10;99.90
34873;DHT22;21084;51.098;14.506;2023-01-09T05:33:13;5.10;99.90
34873;DHT22;21084;51.098;14.506;2023-01-09T05:35:42;5.20;99.90
34873;DHT22;21084;51.098;14.506;2023-01-09T05:38:12;5.20;99.90
34873;DHT22;21084;51.098;14.506;2023-01-09T05:40:40;5.30;99.90
34873;DHT22;21084;51.098;14.506;2023-01-09T05:43:09;5.30;99.90
34873;DHT22;21084;51.098;14.506;2023-01-09T05:45:37;5.30;99.90
34873;DHT22;21084;51.098;14.506;2023-01-09T05:48:06;5.30;99.90
34873;DHT22;21084;51.098;14.506;2023-01-09T05:50:35;5.30;99.90
34873;DHT22;21084;51.098;14.506;2023-01-09T05:53:04;5.20;99.90
34873;DHT22;21084;51.098;14.506;2023-01-09T05:55:34;5.20;99.90
34873;DHT22;21084;51.098;14.506;2023-01-09T05:58:03;5.20;99.90
34873;DHT22;21084;51.098;14.506;2023-01-09T06:00:32;5.20;99.90
34873;DHT22;21084;51.098;14.506;2023-01-09T06:03:01;5.20;99.90
34873;DHT22;21084;51.098;14.506;2023-01-09T06:05:30;5.20;99.90
34873;DHT22;21084;51.098;14.506;2023-01-09T06:07:58;5.30;99.90
34873;DHT22;21084;51.098;14.506;2023-01-09T06:10:27;5.20;99.90
34873;DHT22;21084;51.098;14.506;2023-01-09T06:12:57;5.20;99.90
34873;DHT22;21084;51.098;14.506;2023-01-09T06:15:26;5.20;99.90
34873;DHT22;21084;51.098;14.506;2023-01-09T06:17:55;5.20;99.90
34873;DHT22;21084;51.098;14.506;2023-01-09T06:20:23;5.20;99.90
34873;DHT22;21084;51.098;14.506;2023-01-09T06:22:51;5.10;99.90
34873;DHT22;21084;51.098;14.506;2023-01-09T06:25:20;5.10;99.90
34873;DHT22;21084;51.098;14.506;2023-01-09T06:27:49;5.10;99.90
34873;DHT22;21084;51.098;14.506;2023-01-09T06:30:19;5.10;99.90
34873;DHT22;21084;51.098;14.506;2023-01-09T06:32:49;5.00;99.90
34873;DHT22;21084;51.098;14.506;2023-01-09T06:35:17;5.00;99.90
34873;DHT22;21084;51.098;14.506;2023-01-09T06:37:47;5.00;99.90
34873;DHT22;21084;51.098;14.506;2023-01-09T06:40:17;4.90;99.90
34873;DHT22;21084;51.098;14.506;2023-01-09T06:42:47;5.00;99.90
34873;DHT22;21084;51.098;14.506;2023-01-09T06:45:16;4.90;99.90
34873;DHT22;21084;51.098;14.506;2023-01-09T06:47:46;4.80;99.90
34873;DHT22;21084;51.098;14.506;2023-01-09T06:50:16;4.80;99.90
34873;DHT22;21084;51.098;14.506;2023-01-09T06:52:45;4.80;99.90
34873;DHT22;21084;51.098;14.506;2023-01-09T06:55:13;4.80;99.90
34873;DHT22;21084;51.098;14.506;2023-01-09T06:57:42;4.80;99.90
34873;DHT22;21084;51.098;14.506;2023-01-09T07:00:12;4.70;99.90
34873;DHT22;21084;51.098;14.506;2023-01-09T07:02:40;4.60;99.90
34873;DHT22;21084;51.098;14.506;2023-01-09T07:05:10;4.70;99.90
34873;DHT22;21084;51.098;14.506;2023-01-09T07:07:40;4.70;99.90
34873;DHT22;21084;51.098;14.506;2023-01-09T07:10:09;4.70;99.90
34873;DHT22;21084;51.098;14.506;2023-01-09T07:12:38;4.70;99.90
34873;DHT22;21084;51.098;14.506;2023-01-09T07:15:07;4.70;99.90
34873;DHT22;21084;51.098;14.506;2023-01-09T07:17:36;4.80;99.90
34873;DHT22;21084;51.098;14.506;2023-01-09T07:20:05;4.80;99.90
34873;DHT22;21084;51.098;14.506;2023-01-09T07:22:35;4.80;99.90
34873;DHT22;21084;51.098;14.506;2023-01-09T07:25:04;4.70;99.90
34873;DHT22;21084;51.098;14.506;2023-01-09T07:27:32;4.90;99.90
34873;DHT22;21084;51.098;14.506;2023-01-09T07:30:01;4.80;99.90
34873;DHT22;21084;51.098;14.506;2023-01-09T07:32:30;4.80;99.90
34873;DHT22;21084;51.098;14.506;2023-01-09T07:34:59;4.80;99.90
34873;DHT22;21084;51.098;14.506;2023-01-09T07:37:27;4.90;99.90
34873;DHT22;21084;51.098;14.506;2023-01-09T07:39:57;4.90;99.90
34873;DHT22;21084;51.098;14.506;2023-01-09T07:42:25;4.90;99.90
34873;DHT22;21084;51.098;14.506;2023-01-09T07:44:54;5.00;99.90
34873;DHT22;21084;51.098;14.506;2023-01-09T07:47:22;5.00;99.90
34873;DHT22;21084;51.098;14.506;2023-01-09T07:49:51;5.10;99.90
34873;DHT22;21084;51.098;14.506;2023-01-09T07:52:19;5.10;99.90
34873;DHT22;21084;51.098;14.506;2023-01-09T07:54:48;5.10;99.90
34873;DHT22;21084;51.098;14.506;2023-01-09T07:57:18;5.10;99.90
34873;DHT22;21084;51.098;14.506;2023-01-09T07:59:46;5.10;99.90
34873;DHT22;21084;51.098;14.506;2023-01-09T08:02:15;5.00;99.90
34873;DHT22;21084;51.098;14.506;2023-01-09T08:04:44;5.00;99.90
34873;DHT22;21084;51.098;14.506;2023-01-09T08:07:13;5.00;99.90
34873;DHT22;21084;51.098;14.506;2023-01-09T08:13:28;5.00;99.90
34873;DHT22;21084;51.098;14.506;2023-01-09T08:15:57;5.10;99.90
34873;DHT22;21084;51.098;14.506;2023-01-09T08:18:25;5.10;99.90
34873;DHT22;21084;51.098;14.506;2023-01-09T08:20:54;5.10;99.90
34873;DHT22;21084;51.098;14.506;2023-01-09T08:23:23;5.20;99.90
34873;DHT22;21084;51.098;14.506;2023-01-09T08:25:51;5.20;99.90
34873;DHT22;21084;51.098;14.506;2023-01-09T08:28:20;5.20;99.90
34873;DHT22;21084;51.098;14.506;2023-01-09T08:30:50;5.20;99.90
34873;DHT22;21084;51.098;14.506;2023-01-09T08:33:19;5.30;99.90
34873;DHT22;21084;51.098;14.506;2023-01-09T08:35:47;5.30;99.90
34873;DHT22;21084;51.098;14.506;2023-01-09T08:38:16;5.30;99.90
34873;DHT22;21084;51.098;14.506;2023-01-09T08:40:46;5.40;99.90
34873;DHT22;21084;51.098;14.506;2023-01-09T08:43:14;5.40;99.90
34873;DHT22;21084;51.098;14.506;2023-01-09T08:46:02;5.50;99.90
34873;DHT22;21084;51.098;14.506;2023-01-09T08:48:47;5.60;99.90
34873;DHT22;21084;51.098;14.506;2023-01-09T08:51:16;5.60;99.90
34873;DHT22;21084;51.098;14.506;2023-01-09T08:53:44;5.60;99.90
34873;DHT22;21084;51.098;14.506;2023-01-09T08:56:13;5.70;99.90
34873;DHT22;21084;51.098;14.506;2023-01-09T08:58:42;5.80;99.90
34873;DHT22;21084;51.098;14.506;2023-01-09T09:01:12;5.90;99.90
34873;DHT22;21084;51.098;14.506;2023-01-09T09:03:41;6.10;99.90
34873;DHT22;21084;51.098;14.506;2023-01-09T09:06:09;6.20;99.90
34873;DHT22;21084;51.098;14.506;2023-01-09T09:08:38;6.20;99.90
34873;DHT22;21084;51.098;14.506;2023-01-09T09:11:06;6.20;99.90
34873;DHT22;21084;51.098;14.506;2023-01-09T09:13:35;6.20;99.90
34873;DHT22;21084;51.098;14.506;2023-01-09T09:16:04;6.10;99.90
34873;DHT22;21084;51.098;14.506;2023-01-09T09:18:35;6.10;99.90
34873;DHT22;21084;51.098;14.506;2023-01-09T09:21:03;6.10;99.90
34873;DHT22;21084;51.098;14.506;2023-01-09T09:23:32;6.10;99.90
34873;DHT22;21084;51.098;14.506;2023-01-09T09:26:01;6.20;99.90
34873;DHT22;21084;51.098;14.506;2023-01-09T09:28:29;6.30;99.90
34873;DHT22;21084;51.098;14.506;2023-01-09T09:30:58;6.30;99.90
34873;DHT22;21084;51.098;14.506;2023-01-09T09:33:27;6.20;99.90
34873;DHT22;21084;51.098;14.506;2023-01-09T09:35:59;6.30;99.90
34873;DHT22;21084;51.098;14.506;2023-01-09T09:38:27;6.30;99.90
34873;DHT22;21084;51.098;14.506;2023-01-09T09:41:12;6.40;99.90
34873;DHT22;21084;51.098;14.506;2023-01-09T09:44:11;6.50;99.90
34873;DHT22;21084;51.098;14.506;2023-01-09T09:47:07;6.50;99.90
34873;DHT22;21084;51.098;14.506;2023-01-09T09:49:45;6.50;99.90
34873;DHT22;21084;51.098;14.506;2023-01-09T09:52:28;6.50;99.90
34873;DHT22;21084;51.098;14.506;2023-01-09T09:55:02;6.70;99.90
34873;DHT22;21084;51.098;14.506;2023-01-09T09:57:35;6.70;99.90
34873;DHT22;21084;51.098;14.506;2023-01-09T10:00:06;6.80;99.90
34873;DHT22;21084;51.098;14.506;2023-01-09T10:02:43;6.90;99.90
34873;DHT22;21084;51.098;14.506;2023-01-09T10:05:18;6.90;99.90
34873;DHT22;21084;51.098;14.506;2023-01-09T10:07:50;6.90;99.90
34873;DHT22;21084;51.098;14.506;2023-01-09T10:10:26;6.90;99.90
34873;DHT22;21084;51.098;14.506;2023-01-09T10:12:58;6.90;99.90
34873;DHT22;21084;51.098;14.506;2023-01-09T10:15:51;6.90;99.90
34873;DHT22;21084;51.098;14.506;2023-01-09T10:18:28;6.70;99.90
34873;DHT22;21084;51.098;14.506;2023-01-09T10:21:04;6.70;99.90
34873;DHT22;21084;51.098;14.506;2023-01-09T10:23:53;6.80;99.90
34873;DHT22;21084;51.098;14.506;2023-01-09T10:26:28;7.10;99.90
34873;DHT22;21084;51.098;14.506;2023-01-09T10:29:24;7.10;99.90
34873;DHT22;21084;51.098;14.506;2023-01-09T10:32:06;7.20;99.90
34873;DHT22;21084;51.098;14.506;2023-01-09T10:34:48;7.30;99.90
34873;DHT22;21084;51.098;14.506;2023-01-09T10:37:21;7.20;99.90
34873;DHT22;21084;51.098;14.506;2023-01-09T10:39:56;7.20;99.90
34873;DHT22;21084;51.098;14.506;2023-01-09T10:42:28;7.20;99.90
34873;DHT22;21084;51.098;14.506;2023-01-09T10:45:02;7.10;99.90
34873;DHT22;21084;51.098;14.506;2023-01-09T10:47:36;7.20;99.90
34873;DHT22;21084;51.098;14.506;2023-01-09T10:50:18;7.10;99.90
34873;DHT22;21084;51.098;14.506;2023-01-09T10:52:49;7.00;99.90
34873;DHT22;21084;51.098;14.506;2023-01-09T10:55:34;6.90;99.90
34873;DHT22;21084;51.098;14.506;2023-01-09T10:58:10;6.90;99.90
34873;DHT22;21084;51.098;14.506;2023-01-09T11:00:40;6.80;99.90
34873;DHT22;21084;51.098;14.506;2023-01-09T11:03:11;6.80;99.90
34873;DHT22;21084;51.098;14.506;2023-01-09T11:05:40;6.70;99.90
34873;DHT22;21084;51.098;14.506;2023-01-09T11:08:17;6.80;99.90
34873;DHT22;21084;51.098;14.506;2023-01-09T11:10:51;6.80;99.90
34873;DHT22;21084;51.098;14.506;2023-01-09T11:13:22;6.80;99.90
34873;DHT22;21084;51.098;14.506;2023-01-09T11:16:03;6.90;99.90
34873;DHT22;21084;51.098;14.506;2023-01-09T11:18:34;6.90;99.90
34873;DHT22;21084;51.098;14.506;2023-01-09T11:21:13;6.80;99.90
34873;DHT22;21084;51.098;14.506;2023-01-09T11:23:42;6.70;99.90
34873;DHT22;21084;51.098;14.506;2023-01-09T11:26:21;6.70;99.90
34873;DHT22;21084;51.098;14.506;2023-01-09T11:29:06;6.60;99.90
34873;DHT22;21084;51.098;14.506;2023-01-09T11:31:37;6.60;99.90
34873;DHT22;21084;51.098;14.506;2023-01-09T11:34:14;6.60;99.90
34873;DHT22;21084;51.098;14.506;2023-01-09T11:36:44;6.60;99.90
34873;DHT22;21084;51.098;14.506;2023-01-09T11:39:21;6.60;99.90
34873;DHT22;21084;51.098;14.506;2023-01-09T11:41:54;6.50;99.90
34873;DHT22;21084;51.098;14.506;2023-01-09T11:44:23;6.50;99.90
34873;DHT22;21084;51.098;14.506;2023-01-09T11:46:52;6.40;99.90
34873;DHT22;21084;51.098;14.506;2023-01-09T11:49:22;6.50;99.90
34873;DHT22;21084;51.098;14.506;2023-01-09T11:52:13;6.50;99.90
34873;DHT22;21084;51.098;14.506;2023-01-09T11:54:46;6.70;99.90
34873;DHT22;21084;51.098;14.506;2023-01-09T11:57:17;6.80;99.90
34873;DHT22;21084;51.098;14.506;2023-01-09T11:59:47;6.90;99.90
34873;DHT22;21084;51.098;14.506;2023-01-09T12:02:32;6.60;99.90
34873;DHT22;21084;51.098;14.506;2023-01-09T12:05:14;6.40;99.90
34873;DHT22;21084;51.098;14.506;2023-01-09T12:07:59;6.40;99.90
34873;DHT22;21084;51.098;14.506;2023-01-09T12:10:42;6.50;99.90
34873;DHT22;21084;51.098;14.506;2023-01-09T12:13:24;6.70;99.90
34873;DHT22;21084;51.098;14.506;2023-01-09T12:16:04;6.80;99.90
34873;DHT22;21084;51.098;14.506;2023-01-09T12:18:43;6.90;99.90
34873;DHT22;21084;51.098;14.506;2023-01-09T12:21:23;6.90;99.90
34873;DHT22;21084;51.098;14.506;2023-01-09T12:26:51;7.00;99.90
34873;DHT22;21084;51.098;14.506;2023-01-09T12:29:40;7.10;99.90
34873;DHT22;21084;51.098;14.506;2023-01-09T12:32:27;7.10;99.90
34873;DHT22;21084;51.098;14.506;2023-01-09T12:35:01;7.10;99.90
34873;DHT22;21084;51.098;14.506;2023-01-09T12:38:05;7.20;99.90
34873;DHT22;21084;51.098;14.506;2023-01-09T12:41:08;7.10;99.90
34873;DHT22;21084;51.098;14.506;2023-01-09T12:43:50;7.10;99.90
34873;DHT22;21084;51.098;14.506;2023-01-09T12:46:23;7.10;99.90
34873;DHT22;21084;51.098;14.506;2023-01-09T12:49:10;7.10;99.90
34873;DHT22;21084;51.098;14.506;2023-01-09T12:51:44;7.10;99.90
34873;DHT22;21084;51.098;14.506;2023-01-09T12:54:20;7.20;99.90
34873;DHT22;21084;51.098;14.506;2023-01-09T12:56:54;7.20;99.90
34873;DHT22;21084;51.098;14.506;2023-01-09T12:59:29;7.20;99.90
34873;DHT22;21084;51.098;14.506;2023-01-09T13:02:08;7.20;99.90
34873;DHT22;21084;51.098;14.506;2023-01-09T13:04:43;7.20;99.90
34873;DHT22;21084;51.098;14.506;2023-01-09T13:07:18;7.20;99.90
34873;DHT22;21084;51.098;14.506;2023-01-09T13:09:51;7.30;99.90
34873;DHT22;21084;51.098;14.506;2023-01-09T13:12:22;7.30;99.90
34873;DHT22;21084;51.098;14.506;2023-01-09T13:14:54;7.30;99.90
34873;DHT22;21084;51.098;14.506;2023-01-09T13:17:29;7.30;99.90
34873;DHT22;21084;51.098;14.506;2023-01-09T13:19:58;7.40;99.90
34873;DHT22;21084;51.098;14.506;2023-01-09T13:22:27;7.40;99.90
34873;DHT22;21084;51.098;14.506;2023-01-09T13:25:18;7.40;99.90
34873;DHT22;21084;51.098;14.506;2023-01-09T13:27:55;7.40;99.90
34873;DHT22;21084;51.098;14.506;2023-01-09T13:30:40;7.40;99.90
34873;DHT22;21084;51.098;14.506;2023-01-09T13:33:17;7.40;99.90
34873;DHT22;21084;51.098;14.506;2023-01-09T13:35:49;7.40;99.90
34873;DHT22;21084;51.098;14.506;2023-01-09T13:38:20;7.40;99.90
34873;DHT22;21084;51.098;14.506;2023-01-09T13:41:06;7.40;99.90
34873;DHT22;21084;51.098;14.506;2023-01-09T13:43:56;7.40;99.90
34873;DHT22;21084;51.098;14.506;2023-01-09T13:46:44;7.40;99.90
34873;DHT22;21084;51.098;14.506;2023-01-09T13:49:56;7.40;99.90
34873;DHT22;21084;51.098;14.506;2023-01-09T13:52:33;7.40;99.90
34873;DHT22;21084;51.098;14.506;2023-01-09T13:55:27;7.30;99.90
34873;DHT22;21084;51.098;14.506;2023-01-09T13:58:21;7.40;99.90
34873;DHT22;21084;51.098;14.506;2023-01-09T14:00:56;7.30;99.90
34873;DHT22;21084;51.098;14.506;2023-01-09T14:03:28;7.20;99.90
34873;DHT22;21084;51.098;14.506;2023-01-09T14:06:15;7.20;99.90
34873;DHT22;21084;51.098;14.506;2023-01-09T14:08:46;7.10;99.90
34873;DHT22;21084;51.098;14.506;2023-01-09T14:11:21;7.10;99.90
34873;DHT22;21084;51.098;14.506;2023-01-09T14:14:06;7.10;99.90
34873;DHT22;21084;51.098;14.506;2023-01-09T14:16:41;7.00;99.90
34873;DHT22;21084;51.098;14.506;2023-01-09T14:19:31;7.00;99.90
34873;DHT22;21084;51.098;14.506;2023-01-09T14:22:03;7.00;99.90
34873;DHT22;21084;51.098;14.506;2023-01-09T14:24:39;6.90;99.90
34873;DHT22;21084;51.098;14.506;2023-01-09T14:30:28;6.80;99.90
34873;DHT22;21084;51.098;14.506;2023-01-09T14:32:57;6.80;99.90
34873;DHT22;21084;51.098;14.506;2023-01-09T14:35:33;6.70;99.90
34873;DHT22;21084;51.098;14.506;2023-01-09T14:38:19;6.70;99.90
34873;DHT22;21084;51.098;14.506;2023-01-09T14:40:53;6.60;99.90
34873;DHT22;21084;51.098;14.506;2023-01-09T14:43:30;6.60;99.90
34873;DHT22;21084;51.098;14.506;2023-01-09T14:46:05;6.50;99.90
34873;DHT22;21084;51.098;14.506;2023-01-09T14:48:42;6.50;99.90
34873;DHT22;21084;51.098;14.506;2023-01-09T14:51:15;6.50;99.90
34873;DHT22;21084;51.098;14.506;2023-01-09T14:53:47;6.50;99.90
34873;DHT22;21084;51.098;14.506;2023-01-09T14:56:25;6.40;99.90
34873;DHT22;21084;51.098;14.506;2023-01-09T14:59:05;6.40;99.90
34873;DHT22;21084;51.098;14.506;2023-01-09T15:01:40;6.40;99.90
34873;DHT22;21084;51.098;14.506;2023-01-09T15:04:20;6.30;99.90
34873;DHT22;21084;51.098;14.506;2023-01-09T15:06:50;6.30;99.90
34873;DHT22;21084;51.098;14.506;2023-01-09T15:09:24;6.30;99.90
34873;DHT22;21084;51.098;14.506;2023-01-09T15:11:56;6.20;99.90
34873;DHT22;21084;51.098;14.506;2023-01-09T15:14:30;6.20;99.90
34873;DHT22;21084;51.098;14.506;2023-01-09T15:17:00;6.20;99.90
34873;DHT22;21084;51.098;14.506;2023-01-09T15:19:29;6.30;99.90
34873;DHT22;21084;51.098;14.506;2023-01-09T15:22:02;6.30;99.90
34873;DHT22;21084;51.098;14.506;2023-01-09T15:24:33;6.30;99.90
34873;DHT22;21084;51.098;14.506;2023-01-09T15:27:03;6.20;99.90
34873;DHT22;21084;51.098;14.506;2023-01-09T15:29:37;6.20;99.90
34873;DHT22;21084;51.098;14.506;2023-01-09T15:32:10;6.20;99.90
34873;DHT22;21084;51.098;14.506;2023-01-09T15:34:43;6.20;99.90
34873;DHT22;21084;51.098;14.506;2023-01-09T15:37:26;6.10;99.90
34873;DHT22;21084;51.098;14.506;2023-01-09T15:39:58;6.10;99.90
34873;DHT22;21084;51.098;14.506;2023-01-09T15:42:28;6.10;99.90
34873;DHT22;21084;51.098;14.506;2023-01-09T15:45:21;6.10;99.90
34873;DHT22;21084;51.098;14.506;2023-01-09T15:47:50;6.00;99.90
34873;DHT22;21084;51.098;14.506;2023-01-09T15:50:23;5.90;99.90
34873;DHT22;21084;51.098;14.506;2023-01-09T15:52:54;5.80;99.90
34873;DHT22;21084;51.098;14.506;2023-01-09T15:55:29;5.70;99.90
34873;DHT22;21084;51.098;14.506;2023-01-09T15:58:02;5.80;99.90
34873;DHT22;21084;51.098;14.506;2023-01-09T16:00:38;5.90;99.90
34873;DHT22;21084;51.098;14.506;2023-01-09T16:03:19;5.90;99.90
34873;DHT22;21084;51.098;14.506;2023-01-09T16:05:51;5.80;99.90
34873;DHT22;21084;51.098;14.506;2023-01-09T16:08:24;5.60;99.90
34873;DHT22;21084;51.098;14.506;2023-01-09T16:11:02;5.60;99.90
34873;DHT22;21084;51.098;14.506;2023-01-09T16:13:36;5.50;99.90
34873;DHT22;21084;51.098;14.506;2023-01-09T16:16:06;5.50;99.90
34873;DHT22;21084;51.098;14.506;2023-01-09T16:18:36;5.50;99.90
34873;DHT22;21084;51.098;14.506;2023-01-09T16:21:29;5.50;99.90